Terminal Aerodrome Forecast
Issued by NWS Sioux Falls, SD

Home | Current Version | Previous Version | Text Only | Print | Product List | Glossary Off
Versions: 1 2 3 4 5 6 7 8 9 10 11 12 13 14 15 16 17

000
FTUS43 KFSD 221127
TAFHON
TAF
KHON 221127Z 2212/2312 26005KT P6SM BKN200
     FM221600 35008KT P6SM VCSH BKN090
     FM221800 35012KT P6SM VCSH BKN050
     FM222000 35013KT P6SM BKN070
     FM230300 33008KT P6SM BKN090
     FM231000 33008KT P6SM OVC025=

USA.gov is the U.S. government's official web portal to all federal, state and local government web resources and services.